Time;durP1;ratioP1;P1;durP2;ratioP2;P2;SDS_P1;SDS_P2;PMS_P1;PMS_P2;Temp;Humidity;BMP_temperature;BMP_pressure;BME280_temperature;BME280_humidity;BME280_pressure;Samples;Min_cycle;Max_cycle;Signal;HPM_P1;HPM_P2
2022/11/13 00:01:31;;;;;;;7.93;7.07;;;11.20;99.90;;;;;;5034058;28;20198;-75
2022/11/13 00:04:15;;;;;;;7.53;6.70;;;11.20;99.90;;;;;;5033830;28;20197;-76
2022/11/13 00:06:59;;;;;;;7.20;6.50;;;11.20;99.90;;;;;;5034198;28;20193;-76
2022/11/13 00:09:44;;;;;;;7.90;6.47;;;11.20;99.90;;;;;;5033771;28;20204;-76
2022/11/13 00:12:28;;;;;;;7.80;7.00;;;11.10;99.90;;;;;;5032564;28;20192;-76
2022/11/13 00:15:13;;;;;;;7.20;6.07;;;11.10;99.90;;;;;;5032819;28;20614;-76
2022/11/13 00:18:01;;;;;;;6.75;5.00;;;11.10;99.90;;;;;;5016048;28;20257;-76
2022/11/13 00:20:45;;;;;;;8.32;5.95;;;11.10;99.90;;;;;;5040077;28;20176;-75
2022/11/13 00:23:33;;;;;;;7.75;5.90;;;11.10;99.90;;;;;;5034369;28;20256;-76
2022/11/13 00:26:20;;;;;;;5.95;5.35;;;11.00;99.90;;;;;;5048730;28;20173;-76
2022/11/13 00:29:05;;;;;;;6.43;5.65;;;11.00;99.90;;;;;;5058437;28;20526;-76
2022/11/13 00:31:49;;;;;;;5.45;4.90;;;11.00;99.90;;;;;;5064876;28;20536;-76
2022/11/13 00:34:33;;;;;;;6.20;5.60;;;11.00;99.90;;;;;;5073557;28;20255;-75
2022/11/13 00:37:18;;;;;;;6.90;5.00;;;11.00;99.90;;;;;;5072361;28;20177;-76
2022/11/13 00:40:03;;;;;;;5.03;4.53;;;11.00;99.90;;;;;;5073329;28;20548;-75
2022/11/13 00:42:47;;;;;;;6.07;5.15;;;10.90;99.90;;;;;;5072999;28;20196;-76
2022/11/13 00:45:31;;;;;;;6.68;5.30;;;11.00;99.90;;;;;;5072095;28;20161;-76
2022/11/13 00:48:15;;;;;;;6.00;5.50;;;11.00;99.90;;;;;;5073344;28;20172;-75
2022/11/13 00:50:59;;;;;;;5.50;4.65;;;11.00;99.90;;;;;;5072863;28;20160;-76
2022/11/13 00:53:44;;;;;;;6.03;5.30;;;11.00;99.90;;;;;;5072875;28;20165;-76
2022/11/13 00:56:28;;;;;;;5.72;5.18;;;11.00;99.90;;;;;;5078284;28;20168;-76
2022/11/13 00:59:13;;;;;;;7.70;5.55;;;11.00;99.90;;;;;;5071911;28;20188;-76
2022/11/13 01:01:57;;;;;;;6.35;5.50;;;11.00;99.90;;;;;;5054349;28;20204;-77
2022/11/13 01:04:42;;;;;;;5.50;4.85;;;11.00;99.90;;;;;;5055092;28;20276;-76
2022/11/13 01:07:26;;;;;;;6.50;5.80;;;11.00;99.90;;;;;;5072924;28;20165;-76
2022/11/13 01:10:12;;;;;;;6.13;5.53;;;11.00;99.90;;;;;;5072515;28;20199;-76
2022/11/13 01:12:56;;;;;;;8.80;5.93;;;11.00;99.90;;;;;;5072266;28;20264;-77
2022/11/13 01:15:42;;;;;;;5.60;4.90;;;11.00;99.90;;;;;;5072658;28;20598;-76
2022/11/13 01:18:26;;;;;;;4.80;4.30;;;10.90;99.90;;;;;;5071522;28;20199;-76
2022/11/13 01:21:16;;;;;;;5.40;4.80;;;10.90;99.90;;;;;;5072375;28;20275;-76
2022/11/13 01:24:00;;;;;;;4.30;3.90;;;10.90;99.90;;;;;;5072264;28;20195;-77
2022/11/13 01:26:45;;;;;;;5.97;4.53;;;10.90;99.90;;;;;;5072323;28;20218;-76
2022/11/13 01:29:29;;;;;;;4.75;4.35;;;10.90;99.90;;;;;;5072478;28;20196;-76
2022/11/13 01:32:14;;;;;;;4.90;4.15;;;10.90;99.90;;;;;;5072032;28;20173;-76
2022/11/13 01:34:58;;;;;;;4.75;4.13;;;10.80;99.90;;;;;;5075068;28;20172;-77
2022/11/13 01:37:42;;;;;;;5.03;4.60;;;10.90;99.90;;;;;;5072215;28;20168;-76
2022/11/13 01:40:27;;;;;;;5.10;4.60;;;10.80;99.90;;;;;;5071033;28;20688;-76
2022/11/13 01:43:22;;;;;;;4.28;3.55;;;10.80;99.90;;;;;;5071814;28;20176;-76
2022/11/13 01:46:20;;;;;;;5.78;4.30;;;10.80;99.90;;;;;;5071964;28;20228;-76
2022/11/13 01:49:14;;;;;;;5.70;4.32;;;10.80;99.90;;;;;;5071948;28;20219;-76
2022/11/13 01:52:07;;;;;;;5.15;4.65;;;10.70;99.90;;;;;;5071638;28;20165;-76
2022/11/13 01:54:59;;;;;;;5.50;4.07;;;10.70;99.90;;;;;;5071920;28;20160;-76
2022/11/13 01:57:43;;;;;;;8.70;4.72;;;10.70;99.90;;;;;;5070864;28;20527;-76
2022/11/13 02:00:27;;;;;;;5.95;5.10;;;10.60;99.90;;;;;;5053799;28;20282;-76
2022/11/13 02:03:11;;;;;;;4.20;3.80;;;10.60;99.90;;;;;;5071414;28;20176;-77
2022/11/13 02:05:56;;;;;;;5.05;4.45;;;10.70;99.90;;;;;;5071097;28;20570;-76
2022/11/13 02:08:41;;;;;;;7.32;4.63;;;10.60;99.90;;;;;;5072012;28;20204;-76
2022/11/13 02:11:26;;;;;;;5.43;4.72;;;10.60;99.90;;;;;;5076653;28;20172;-76
2022/11/13 02:14:12;;;;;;;4.55;4.15;;;10.60;99.90;;;;;;5071574;28;20174;-77
2022/11/13 02:17:00;;;;;;;5.43;4.75;;;10.60;99.90;;;;;;5071837;28;20165;-76
2022/11/13 02:19:50;;;;;;;6.00;4.70;;;10.60;99.90;;;;;;5071758;28;20220;-76
2022/11/13 02:22:46;;;;;;;8.20;5.35;;;10.60;99.90;;;;;;5071327;28;20195;-76
2022/11/13 02:25:32;;;;;;;5.70;5.05;;;10.50;99.90;;;;;;5070612;28;20641;-76
2022/11/13 02:28:16;;;;;;;5.43;4.93;;;10.50;99.90;;;;;;5071688;28;20171;-76
2022/11/13 02:31:12;;;;;;;5.82;5.22;;;10.50;99.90;;;;;;5071505;28;20259;-76
2022/11/13 02:33:56;;;;;;;5.97;5.38;;;10.50;99.90;;;;;;5053103;28;20628;-76
2022/11/13 02:36:40;;;;;;;5.72;5.22;;;10.40;99.90;;;;;;5053639;28;20172;-76
2022/11/13 02:39:24;;;;;;;5.70;5.05;;;10.40;99.90;;;;;;5053341;28;20188;-76
2022/11/13 02:42:08;;;;;;;4.90;4.43;;;10.40;99.90;;;;;;5053020;28;20204;-76
2022/11/13 02:44:52;;;;;;;5.60;5.10;;;10.40;99.90;;;;;;5071439;28;20172;-76
2022/11/13 02:47:37;;;;;;;8.35;5.80;;;10.40;99.90;;;;;;5076296;28;20532;-75
2022/11/13 02:50:21;;;;;;;6.13;5.53;;;10.30;99.90;;;;;;5071423;28;20619;-76
2022/11/13 02:53:06;;;;;;;5.53;5.00;;;10.30;99.90;;;;;;5052906;28;20172;-77
2022/11/13 02:55:50;;;;;;;6.07;5.32;;;10.30;99.90;;;;;;5071400;28;20625;-76
2022/11/13 02:58:35;;;;;;;5.63;4.93;;;10.30;99.90;;;;;;5071128;28;20231;-77
2022/11/13 03:01:19;;;;;;;5.13;4.32;;;10.30;99.90;;;;;;5070047;28;20203;-76
2022/11/13 03:04:03;;;;;;;5.80;4.57;;;10.20;99.90;;;;;;5071054;28;20251;-75
2022/11/13 03:06:47;;;;;;;5.68;5.07;;;10.20;99.90;;;;;;5071181;28;20255;-76
2022/11/13 03:09:32;;;;;;;5.85;5.25;;;10.20;99.90;;;;;;5070625;28;20199;-76
2022/11/13 03:12:16;;;;;;;5.88;5.30;;;10.10;99.90;;;;;;5070709;28;20168;-75
2022/11/13 03:15:01;;;;;;;5.15;4.65;;;10.10;99.90;;;;;;5070956;28;20615;-76
2022/11/13 03:17:45;;;;;;;5.15;4.70;;;10.10;99.90;;;;;;5071280;28;20199;-76
2022/11/13 03:20:30;;;;;;;5.45;4.63;;;10.10;99.90;;;;;;5070052;28;20191;-76
2022/11/13 03:23:14;;;;;;;5.80;4.57;;;10.10;99.90;;;;;;5074699;28;20180;-76
2022/11/13 03:26:04;;;;;;;5.07;4.43;;;10.10;99.90;;;;;;5079540;28;20275;-76
2022/11/13 03:28:49;;;;;;;5.03;4.53;;;10.10;99.90;;;;;;5074518;28;20191;-76
2022/11/13 03:31:33;;;;;;;5.53;4.72;;;10.10;99.90;;;;;;5074646;28;20164;-76
2022/11/13 03:34:18;;;;;;;6.18;4.88;;;10.00;99.90;;;;;;5056222;28;20624;-76
2022/11/13 03:37:02;;;;;;;5.65;4.03;;;10.00;99.90;;;;;;5056482;28;20175;-76
2022/11/13 03:39:46;;;;;;;5.80;5.20;;;9.90;99.90;;;;;;5073394;28;20269;-76
2022/11/13 03:42:30;;;;;;;6.63;5.70;;;9.90;99.90;;;;;;5074383;28;20553;-77
2022/11/13 03:45:15;;;;;;;5.75;5.05;;;9.80;99.90;;;;;;5074330;28;20225;-77
2022/11/13 03:47:59;;;;;;;5.25;4.30;;;9.80;99.90;;;;;;5074334;28;20210;-77
2022/11/13 03:50:47;;;;;;;5.78;5.18;;;9.80;99.90;;;;;;5074184;28;20192;-77
2022/11/13 03:53:32;;;;;;;6.70;5.57;;;9.70;99.90;;;;;;5073967;28;20248;-77
2022/11/13 03:56:16;;;;;;;6.00;5.35;;;9.70;99.90;;;;;;5074292;28;20160;-77
2022/11/13 03:59:00;;;;;;;6.05;4.78;;;9.70;99.90;;;;;;5056092;28;20275;-77
2022/11/13 04:01:45;;;;;;;4.63;4.20;;;9.70;99.90;;;;;;5078352;28;20192;-77
2022/11/13 04:04:29;;;;;;;4.60;4.00;;;9.60;99.90;;;;;;5074361;28;20164;-77
2022/11/13 04:07:14;;;;;;;6.28;4.35;;;9.60;99.90;;;;;;5073941;28;20165;-77
2022/11/13 04:09:58;;;;;;;5.07;4.50;;;9.60;99.90;;;;;;5072694;28;20656;-77
2022/11/13 04:12:42;;;;;;;5.75;5.25;;;9.60;99.90;;;;;;5073496;28;20242;-77
2022/11/13 04:15:27;;;;;;;5.50;4.75;;;9.60;99.90;;;;;;5055919;28;20219;-77
2022/11/13 04:18:11;;;;;;;5.25;4.30;;;9.50;99.90;;;;;;5073787;28;20206;-77
2022/11/13 04:21:03;;;;;;;5.47;4.72;;;9.50;99.90;;;;;;5073743;28;20209;-77
2022/11/13 04:23:47;;;;;;;4.70;4.00;;;9.50;99.90;;;;;;5073388;28;20233;-77
2022/11/13 04:26:32;;;;;;;5.13;4.55;;;9.50;99.90;;;;;;5072446;28;20251;-77
2022/11/13 04:29:16;;;;;;;4.80;4.30;;;9.50;99.90;;;;;;5055315;28;20191;-77
2022/11/13 04:32:01;;;;;;;5.40;4.90;;;9.50;99.90;;;;;;5054839;28;20179;-76
2022/11/13 04:34:44;;;;;;;6.13;4.85;;;9.50;99.90;;;;;;5072773;28;20251;-76
2022/11/13 04:37:29;;;;;;;4.55;4.10;;;9.50;99.90;;;;;;5073378;28;20259;-76
2022/11/13 04:40:13;;;;;;;3.58;3.28;;;9.60;99.90;;;;;;5077572;28;20184;-76
2022/11/13 04:42:58;;;;;;;5.32;4.72;;;9.60;99.90;;;;;;5071828;28;20199;-77
2022/11/13 04:45:42;;;;;;;4.80;4.00;;;9.60;99.90;;;;;;5061435;28;20656;-76
2022/11/13 04:48:26;;;;;;;5.97;4.57;;;9.60;99.90;;;;;;5053327;28;20165;-77
2022/11/13 04:51:11;;;;;;;3.85;3.33;;;9.60;99.90;;;;;;5052885;28;20173;-77
2022/11/13 04:53:56;;;;;;;4.72;4.13;;;9.60;99.90;;;;;;5052082;28;20168;-76
2022/11/13 04:56:41;;;;;;;5.30;4.00;;;9.60;99.90;;;;;;5053273;28;20226;-77
2022/11/13 04:59:25;;;;;;;4.28;3.70;;;9.70;99.90;;;;;;5053119;28;20702;-76
2022/11/13 05:02:09;;;;;;;5.00;4.22;;;9.70;99.90;;;;;;5051538;28;20280;-77
2022/11/13 05:04:53;;;;;;;4.47;4.07;;;9.70;99.90;;;;;;5053194;28;20165;-77
2022/11/13 05:07:38;;;;;;;5.90;5.28;;;9.60;99.90;;;;;;5053240;28;20223;-77
2022/11/13 05:10:22;;;;;;;4.88;4.38;;;9.60;99.90;;;;;;5052859;28;20215;-77
2022/11/13 05:13:06;;;;;;;6.50;5.80;;;9.60;99.90;;;;;;5053173;28;20164;-77
2022/11/13 05:15:58;;;;;;;4.30;3.90;;;9.60;99.90;;;;;;5056700;28;20181;-77
2022/11/13 05:18:42;;;;;;;5.55;5.05;;;9.60;99.90;;;;;;5034714;28;20284;-77
2022/11/13 05:21:27;;;;;;;4.93;4.47;;;9.60;99.90;;;;;;5058502;28;20196;-77
2022/11/13 05:24:12;;;;;;;4.25;3.85;;;9.50;99.90;;;;;;5051012;28;20523;-77
2022/11/13 05:26:56;;;;;;;6.68;3.95;;;9.50;99.90;;;;;;5052323;28;20256;-77
2022/11/13 05:29:40;;;;;;;6.22;4.15;;;9.50;99.90;;;;;;5052445;28;20199;-76
2022/11/13 05:32:24;;;;;;;4.63;4.07;;;9.50;99.90;;;;;;5051193;28;20252;-76
2022/11/13 05:35:09;;;;;;;7.70;3.70;;;9.50;99.90;;;;;;5052330;28;20173;-76
2022/11/13 05:37:53;;;;;;;3.72;3.40;;;9.50;99.90;;;;;;5052205;28;20533;-76
2022/11/13 05:40:37;;;;;;;4.97;4.47;;;9.40;99.90;;;;;;5052314;28;20180;-76
2022/11/13 05:43:22;;;;;;;3.50;2.97;;;9.40;99.90;;;;;;5051855;28;20176;-76
2022/11/13 05:46:12;;;;;;;4.25;3.85;;;9.40;99.90;;;;;;5052255;28;20181;-76
2022/11/13 05:48:59;;;;;;;3.90;3.47;;;9.40;99.90;;;;;;5051162;28;20204;-76
2022/11/13 05:51:43;;;;;;;3.78;3.05;;;9.40;99.90;;;;;;5052181;28;20251;-76
2022/11/13 05:54:27;;;;;;;4.57;3.50;;;9.40;99.90;;;;;;5062216;28;20247;-75
2022/11/13 05:57:12;;;;;;;4.82;3.60;;;9.30;99.90;;;;;;5052000;28;20162;-77
2022/11/13 05:59:56;;;;;;;4.30;3.90;;;9.30;99.90;;;;;;5050781;28;20645;-77
2022/11/13 06:02:40;;;;;;;4.18;3.80;;;9.30;99.90;;;;;;5051542;28;20627;-76
2022/11/13 06:05:24;;;;;;;4.20;3.83;;;9.30;99.90;;;;;;5051899;28;20556;-76
2022/11/13 06:08:09;;;;;;;3.83;2.80;;;9.30;99.90;;;;;;5033646;28;20165;-76
2022/11/13 06:10:58;;;;;;;3.95;2.95;;;9.30;99.90;;;;;;5050671;28;20177;-77
2022/11/13 06:13:42;;;;;;;3.63;3.10;;;9.20;99.90;;;;;;5051345;28;20157;-77
2022/11/13 06:16:36;;;;;;;3.83;3.45;;;9.20;99.90;;;;;;5034297;28;20299;-77
2022/11/13 06:19:20;;;;;;;5.05;3.20;;;9.20;99.90;;;;;;5052012;28;20193;-76
2022/11/13 06:22:04;;;;;;;3.88;3.10;;;9.20;99.90;;;;;;5051474;28;20205;-78
2022/11/13 06:24:49;;;;;;;4.32;3.00;;;9.10;99.90;;;;;;5051588;28;20231;-76
2022/11/13 06:27:33;;;;;;;3.15;2.78;;;9.10;99.90;;;;;;5050816;28;20169;-77
2022/11/13 06:30:17;;;;;;;4.35;3.30;;;9.10;99.90;;;;;;5057228;28;20283;-76
2022/11/13 06:33:02;;;;;;;3.45;3.00;;;9.20;99.90;;;;;;5051438;28;20165;-77
2022/11/13 06:35:46;;;;;;;5.90;3.45;;;9.10;99.90;;;;;;5051744;28;20169;-77
2022/11/13 06:38:35;;;;;;;4.95;2.78;;;9.10;99.90;;;;;;5051560;28;20629;-77
2022/11/13 06:41:23;;;;;;;4.10;3.30;;;9.10;99.90;;;;;;5050421;28;20201;-77
2022/11/13 06:44:07;;;;;;;3.72;3.00;;;9.10;99.90;;;;;;5051163;28;20164;-76
2022/11/13 06:46:51;;;;;;;4.97;2.67;;;9.10;99.90;;;;;;5051532;28;20247;-77
2022/11/13 06:49:35;;;;;;;2.90;2.60;;;9.10;99.90;;;;;;5030247;28;20196;-76
2022/11/13 06:52:19;;;;;;;6.72;3.20;;;9.10;99.90;;;;;;5031302;28;20169;-76
2022/11/13 06:55:04;;;;;;;3.22;2.35;;;9.10;99.90;;;;;;5031200;28;20252;-77
2022/11/13 06:57:49;;;;;;;3.63;3.33;;;9.10;99.90;;;;;;5020127;28;20240;-76
2022/11/13 07:00:33;;;;;;;2.88;2.22;;;9.20;99.90;;;;;;5035372;28;20169;-76
2022/11/13 07:03:18;;;;;;;2.78;2.00;;;9.20;99.90;;;;;;5017198;28;20216;-76
2022/11/13 07:06:05;;;;;;;3.00;2.60;;;9.20;99.90;;;;;;5035575;28;20250;-76
2022/11/13 07:08:51;;;;;;;4.13;2.70;;;9.20;99.90;;;;;;5019974;28;20217;-76
2022/11/13 07:11:35;;;;;;;2.50;2.30;;;9.30;99.90;;;;;;5017251;28;20180;-76
2022/11/13 07:14:19;;;;;;;2.47;2.20;;;9.30;99.90;;;;;;5039594;28;20203;-77
2022/11/13 07:17:04;;;;;;;3.78;2.20;;;9.30;99.90;;;;;;5054938;28;20165;-77
2022/11/13 07:19:48;;;;;;;2.65;2.00;;;9.30;99.90;;;;;;5054121;28;20205;-77
2022/11/13 07:22:32;;;;;;;3.15;2.47;;;9.30;99.90;;;;;;5053543;28;20197;-77
2022/11/13 07:25:16;;;;;;;3.15;2.25;;;9.30;99.90;;;;;;5054973;28;20551;-77
2022/11/13 07:28:01;;;;;;;2.90;2.25;;;9.30;99.90;;;;;;5053951;28;20169;-78
2022/11/13 07:30:45;;;;;;;3.15;2.28;;;9.40;99.90;;;;;;5054756;28;20164;-78
2022/11/13 07:33:30;;;;;;;4.03;2.45;;;9.40;99.90;;;;;;5054225;28;20192;-78
2022/11/13 07:36:14;;;;;;;2.90;2.30;;;9.40;99.90;;;;;;5050355;28;20181;-78
2022/11/13 07:38:59;;;;;;;3.35;2.08;;;9.40;99.90;;;;;;5047301;28;20193;-78
2022/11/13 07:41:43;;;;;;;2.17;1.80;;;9.50;99.90;;;;;;5056775;28;20283;-78
2022/11/13 07:44:27;;;;;;;3.20;2.20;;;9.60;99.90;;;;;;5057611;28;20169;-78
2022/11/13 07:47:12;;;;;;;2.63;2.25;;;9.60;99.90;;;;;;5054641;28;20173;-78
2022/11/13 07:49:56;;;;;;;2.10;1.90;;;9.70;99.90;;;;;;5059056;28;20188;-79
2022/11/13 07:52:41;;;;;;;2.85;2.10;;;9.70;99.90;;;;;;5054129;28;20231;-78
2022/11/13 07:55:26;;;;;;;3.22;2.10;;;9.80;99.90;;;;;;5053675;28;20196;-76
2022/11/13 07:58:10;;;;;;;3.60;2.17;;;9.90;99.90;;;;;;5048151;28;20180;-78
2022/11/13 08:00:54;;;;;;;2.35;1.90;;;9.90;99.90;;;;;;5054285;28;20173;-76
2022/11/13 08:03:38;;;;;;;2.90;2.45;;;10.00;99.90;;;;;;5052032;28;20203;-77
2022/11/13 08:06:23;;;;;;;2.60;2.30;;;10.00;99.90;;;;;;5050167;28;20634;-76
2022/11/13 08:09:07;;;;;;;2.70;2.30;;;10.10;99.90;;;;;;5033924;28;20206;-78
2022/11/13 08:11:52;;;;;;;2.22;1.73;;;10.10;99.90;;;;;;5033148;28;20324;-78
2022/11/13 08:14:36;;;;;;;3.08;2.35;;;10.20;99.90;;;;;;5034085;28;20205;-77
2022/11/13 08:17:20;;;;;;;3.45;1.90;;;10.30;99.90;;;;;;5034092;28;20164;-78
2022/11/13 08:20:06;;;;;;;2.90;2.10;;;10.40;99.90;;;;;;5037676;28;20193;-77
2022/11/13 08:22:51;;;;;;;2.35;2.13;;;10.40;99.90;;;;;;5038770;28;20803;-78
2022/11/13 08:25:36;;;;;;;3.15;2.08;;;10.50;99.90;;;;;;5033926;28;20201;-77
2022/11/13 08:28:20;;;;;;;2.67;2.10;;;10.60;99.90;;;;;;5032840;28;20528;-77
2022/11/13 08:31:10;;;;;;;2.50;1.73;;;10.60;99.90;;;;;;5040455;28;20169;-77
2022/11/13 08:33:54;;;;;;;3.13;2.30;;;10.70;99.90;;;;;;5027747;28;20633;-77
2022/11/13 08:36:38;;;;;;;4.30;2.72;;;10.80;99.90;;;;;;5053526;28;20208;-77
2022/11/13 08:39:23;;;;;;;3.40;2.30;;;10.90;99.90;;;;;;5052163;28;20210;-77
2022/11/13 08:42:07;;;;;;;4.95;2.25;;;11.00;99.90;;;;;;5049310;28;20193;-77
2022/11/13 08:44:52;;;;;;;3.55;2.60;;;11.10;99.90;;;;;;5052118;28;20196;-77
2022/11/13 08:47:36;;;;;;;3.00;1.80;;;11.20;99.90;;;;;;5053471;28;20157;-77
2022/11/13 08:50:21;;;;;;;3.30;2.50;;;11.30;99.90;;;;;;5051956;28;20546;-77
2022/11/13 08:53:05;;;;;;;3.50;2.63;;;11.30;99.90;;;;;;5052957;28;20173;-77
2022/11/13 08:55:50;;;;;;;2.95;2.40;;;11.50;99.90;;;;;;5051186;28;20181;-77
2022/11/13 08:58:34;;;;;;;4.45;2.25;;;11.60;99.90;;;;;;5056200;28;20188;-77
2022/11/13 09:01:21;;;;;;;3.78;2.13;;;11.60;99.90;;;;;;5051065;28;20604;-78
2022/11/13 09:04:06;;;;;;;3.25;2.80;;;11.70;99.90;;;;;;5049439;28;20161;-78
2022/11/13 09:06:51;;;;;;;2.58;2.00;;;11.80;99.90;;;;;;5050885;28;20169;-78
2022/11/13 09:09:36;;;;;;;3.30;2.03;;;11.90;99.90;;;;;;5050874;28;20242;-78
2022/11/13 09:12:20;;;;;;;2.33;1.70;;;11.90;99.90;;;;;;5051674;28;20185;-78
2022/11/13 09:15:04;;;;;;;3.03;2.17;;;12.00;99.90;;;;;;5046376;28;20283;-78
2022/11/13 09:17:49;;;;;;;3.85;2.28;;;12.10;99.90;;;;;;5052674;28;20578;-78
2022/11/13 09:20:33;;;;;;;3.05;2.50;;;12.20;99.90;;;;;;5051868;28;20189;-78
2022/11/13 09:23:17;;;;;;;2.72;2.03;;;12.40;99.90;;;;;;5052172;28;20240;-78
2022/11/13 09:26:02;;;;;;;2.00;1.48;;;12.50;99.90;;;;;;5065731;28;20165;-78
2022/11/13 09:28:46;;;;;;;3.03;2.10;;;12.60;99.90;;;;;;5052509;28;20189;-77
2022/11/13 09:31:31;;;;;;;2.95;1.77;;;12.70;99.90;;;;;;5052592;28;20603;-77
2022/11/13 09:34:16;;;;;;;2.60;2.25;;;12.80;99.90;;;;;;5052868;28;20219;-77
2022/11/13 09:37:00;;;;;;;2.90;1.80;;;13.00;99.90;;;;;;5056698;28;20454;-76
2022/11/13 09:39:45;;;;;;;3.25;1.80;;;13.10;99.90;;;;;;5049931;28;20623;-78
2022/11/13 09:42:31;;;;;;;2.20;1.60;;;13.30;99.90;;;;;;5051663;28;20200;-78
2022/11/13 09:45:16;;;;;;;4.07;2.13;;;13.40;99.90;;;;;;5052515;28;21355;-78
2022/11/13 09:48:24;;;;;;;2.70;1.80;;;13.50;99.90;;;;;;5046833;28;20603;-78
2022/11/13 09:51:18;;;;;;;1.97;1.30;;;13.60;99.90;;;;;;5028245;28;20698;-78
2022/11/13 09:54:05;;;;;;;1.97;1.37;;;13.80;99.90;;;;;;5051956;28;20905;-78
2022/11/13 09:57:11;;;;;;;2.67;1.70;;;13.90;99.90;;;;;;5050973;28;20956;-78
2022/11/13 10:00:05;;;;;;;3.30;1.53;;;14.00;99.90;;;;;;5051793;28;20615;-78
2022/11/13 10:03:00;;;;;;;3.80;1.60;;;14.10;99.90;;;;;;5051536;28;20730;-78
2022/11/13 10:05:55;;;;;;;2.40;1.43;;;14.20;99.90;;;;;;5048385;28;20591;-77
2022/11/13 10:08:55;;;;;;;1.93;1.17;;;14.30;99.90;;;;;;5051851;28;20615;-77
2022/11/13 10:11:47;;;;;;;1.63;1.07;;;14.50;99.90;;;;;;5056551;23;20685;-78
2022/11/13 10:14:42;;;;;;;5.07;1.10;;;14.50;99.90;;;;;;5041390;28;20596;-78
2022/11/13 10:17:40;;;;;;;3.37;1.47;;;14.70;99.90;;;;;;5032706;28;20589;-78
2022/11/13 10:20:35;;;;;;;2.53;1.30;;;14.80;99.90;;;;;;5019564;28;21212;-78
2022/11/13 10:23:37;;;;;;;2.03;1.30;;;14.90;99.90;;;;;;5038169;28;20658;-78
2022/11/13 10:26:25;;;;;;;3.30;1.20;;;15.00;99.90;;;;;;5027538;28;20587;-79
2022/11/13 10:29:15;;;;;;;2.40;1.20;;;15.10;99.90;;;;;;5031523;28;20646;-79
2022/11/13 10:32:20;;;;;;;2.30;1.53;;;15.10;99.90;;;;;;5030357;28;20568;-80
2022/11/13 10:35:05;;;;;;;3.10;1.50;;;15.20;99.90;;;;;;5013576;28;20805;-79
2022/11/13 10:38:10;;;;;;;2.10;1.33;;;15.30;99.90;;;;;;5032104;28;21123;-80
2022/11/13 10:41:26;;;;;;;1.80;1.30;;;15.30;94.50;;;;;;5033560;28;20640;-82
2022/11/13 10:44:25;;;;;;;2.53;1.50;;;15.50;99.90;;;;;;4989982;28;20612;-80
2022/11/13 10:47:18;;;;;;;2.37;1.50;;;15.60;98.20;;;;;;5031201;28;20596;-80
2022/11/13 10:50:20;;;;;;;2.60;1.27;;;15.70;99.90;;;;;;5030383;28;20631;-81
2022/11/13 10:53:15;;;;;;;2.07;1.20;;;15.80;96.10;;;;;;5029750;28;20603;-81
2022/11/13 10:55:59;;;;;;;2.10;0.90;;;15.90;99.30;;;;;;5012346;28;20566;-81
2022/11/13 10:58:44;;;;;;;1.77;1.10;;;16.00;98.80;;;;;;5019020;28;20924;-83
2022/11/13 11:01:28;;;;;;;2.30;1.40;;;16.10;99.70;;;;;;5029236;28;20648;-84
2022/11/13 11:04:28;;;;;;;2.40;1.00;;;16.20;99.00;;;;;;5031940;28;20611;-82
2022/11/13 11:07:21;;;;;;;2.07;1.30;;;16.20;97.90;;;;;;5034894;28;20572;-83
2022/11/13 11:10:19;;;;;;;2.30;1.00;;;16.20;95.60;;;;;;5019872;28;20951;-82
2022/11/13 11:13:21;;;;;;;2.10;1.20;;;16.30;92.20;;;;;;5034108;28;20605;-82
2022/11/13 11:16:10;;;;;;;3.00;1.23;;;16.40;93.90;;;;;;5047129;28;20643;-82
2022/11/13 11:19:00;;;;;;;2.80;1.30;;;16.50;95.80;;;;;;5031394;28;20580;-80
2022/11/13 11:21:48;;;;;;;2.40;1.13;;;16.50;95.70;;;;;;5030724;28;20666;-79
2022/11/13 11:24:38;;;;;;;3.37;1.60;;;16.50;94.50;;;;;;5030745;28;20685;-79
2022/11/13 11:27:31;;;;;;;2.90;1.70;;;16.50;90.80;;;;;;5047767;28;20653;-79
2022/11/13 11:30:21;;;;;;;2.90;2.00;;;16.60;92.00;;;;;;5051165;28;20599;-81
2022/11/13 11:33:34;;;;;;;3.70;1.60;;;16.60;91.90;;;;;;5051244;28;20576;-79
2022/11/13 11:36:54;;;;;;;2.80;1.47;;;16.60;87.10;;;;;;5035771;28;20678;-79
2022/11/13 11:39:48;;;;;;;3.63;1.77;;;16.70;92.10;;;;;;5027039;28;20612;-79
2022/11/13 11:42:32;;;;;;;2.17;1.37;;;16.80;92.10;;;;;;5072152;28;20670;-79
2022/11/13 11:45:32;;;;;;;2.17;1.20;;;16.90;91.50;;;;;;5077093;28;20567;-79
2022/11/13 11:48:25;;;;;;;2.50;1.10;;;16.90;91.70;;;;;;5060655;28;20571;-79
2022/11/13 11:51:30;;;;;;;2.17;1.20;;;17.00;92.00;;;;;;5031409;28;20666;-79
2022/11/13 11:54:23;;;;;;;2.10;1.20;;;17.10;92.30;;;;;;5035252;28;20566;-79
2022/11/13 11:57:42;;;;;;;2.10;1.13;;;17.10;90.60;;;;;;5031631;28;20596;-79
2022/11/13 12:00:30;;;;;;;2.20;1.20;;;17.10;90.90;;;;;;4996499;28;20620;-80
2022/11/13 12:03:34;;;;;;;2.00;1.33;;;17.20;90.90;;;;;;5047056;28;20628;-80
2022/11/13 12:06:40;;;;;;;2.13;1.17;;;17.20;91.30;;;;;;5034132;28;20564;-80
2022/11/13 12:09:35;;;;;;;1.90;1.20;;;17.20;90.90;;;;;;5034047;28;20572;-80
2022/11/13 12:12:43;;;;;;;1.50;0.73;;;17.30;91.00;;;;;;5054196;28;20686;-79
2022/11/13 12:15:49;;;;;;;2.10;1.20;;;17.30;87.60;;;;;;5058897;28;20571;-80
2022/11/13 12:19:00;;;;;;;2.13;1.00;;;17.40;90.00;;;;;;5035841;28;20575;-79
2022/11/13 12:22:13;;;;;;;1.80;0.90;;;17.40;89.20;;;;;;5053478;28;20631;-76
2022/11/13 12:25:26;;;;;;;1.80;1.00;;;17.40;90.10;;;;;;5055104;28;20595;-75
2022/11/13 12:28:36;;;;;;;2.47;1.03;;;17.50;89.30;;;;;;5054593;28;20960;-75
2022/11/13 12:31:38;;;;;;;1.90;1.17;;;17.50;88.40;;;;;;5058723;28;20591;-74
2022/11/13 12:34:57;;;;;;;2.23;1.10;;;17.50;88.80;;;;;;5054426;28;20574;-75
2022/11/13 12:37:51;;;;;;;3.30;1.33;;;17.50;86.60;;;;;;5052872;28;20571;-74
2022/11/13 12:40:41;;;;;;;2.10;1.07;;;17.60;86.60;;;;;;5053829;28;20613;-75
2022/11/13 12:44:09;;;;;;;2.30;1.27;;;17.70;85.90;;;;;;5053287;28;20619;-75
2022/11/13 12:46:55;;;;;;;1.90;0.90;;;17.70;89.00;;;;;;5018359;28;20733;-74
2022/11/13 12:49:40;;;;;;;1.90;1.10;;;17.70;89.30;;;;;;5053058;28;20658;-75
2022/11/13 12:52:25;;;;;;;2.23;1.10;;;17.80;90.00;;;;;;5055056;28;20579;-74
2022/11/13 12:55:28;;;;;;;1.90;1.20;;;17.80;88.80;;;;;;5052795;28;20911;-75
2022/11/13 12:58:25;;;;;;;2.13;1.07;;;17.80;88.00;;;;;;5053650;28;21059;-75
2022/11/13 13:01:09;;;;;;;1.90;0.93;;;17.80;88.00;;;;;;5036030;28;20618;-75
2022/11/13 13:04:24;;;;;;;1.87;1.03;;;17.90;89.50;;;;;;5055264;28;21240;-74
2022/11/13 13:07:27;;;;;;;1.60;1.00;;;17.80;87.60;;;;;;5057091;28;20933;-76
2022/11/13 13:10:35;;;;;;;2.83;1.90;;;17.90;88.90;;;;;;5056609;28;21039;-76
2022/11/13 13:13:36;;;;;;;1.60;0.80;;;17.80;88.30;;;;;;5054103;28;20581;-75
2022/11/13 13:16:28;;;;;;;1.97;1.00;;;17.90;87.90;;;;;;5037258;28;20648;-74
2022/11/13 13:19:25;;;;;;;1.87;1.00;;;17.80;84.70;;;;;;5056398;28;20572;-76
2022/11/13 13:22:23;;;;;;;1.50;0.80;;;17.80;87.10;;;;;;5055356;28;20714;-75
2022/11/13 13:25:27;;;;;;;3.03;0.97;;;17.80;87.80;;;;;;5055050;28;20564;-75
2022/11/13 13:28:20;;;;;;;1.60;1.00;;;17.80;84.50;;;;;;5056679;28;20613;-76
2022/11/13 13:31:26;;;;;;;3.00;0.80;;;17.80;85.50;;;;;;5054407;28;20591;-75
2022/11/13 13:34:39;;;;;;;2.80;1.20;;;17.80;86.20;;;;;;5053138;28;20571;-74
2022/11/13 13:37:26;;;;;;;2.43;1.30;;;17.80;84.50;;;;;;5053140;28;20567;-74
2022/11/13 13:40:52;;;;;;;4.33;3.07;;;17.80;85.70;;;;;;5052202;28;20706;-75
2022/11/13 13:44:11;;;;;;;5.60;3.43;;;17.80;83.90;;;;;;4972563;28;20638;-75
2022/11/13 13:46:57;;;;;;;2.50;2.17;;;17.90;82.90;;;;;;5054104;28;21101;-74
2022/11/13 13:49:42;;;;;;;4.30;2.90;;;17.90;82.40;;;;;;5038040;28;20602;-75
2022/11/13 13:52:30;;;;;;;3.73;3.30;;;17.90;83.20;;;;;;5035243;28;20578;-75
2022/11/13 13:55:37;;;;;;;2.10;1.20;;;17.90;83.90;;;;;;5053004;28;20572;-75
2022/11/13 13:58:35;;;;;;;2.73;1.30;;;17.90;84.30;;;;;;5052404;28;20567;-73
2022/11/13 14:01:30;;;;;;;2.13;1.40;;;18.00;83.50;;;;;;5035238;28;21174;-74
2022/11/13 14:04:20;;;;;;;3.13;1.33;;;18.00;83.80;;;;;;5053101;28;20576;-74
2022/11/13 14:07:22;;;;;;;4.13;2.90;;;18.00;83.20;;;;;;5052309;28;20605;-74
2022/11/13 14:10:17;;;;;;;3.37;2.40;;;18.00;80.20;;;;;;5051657;28;20607;-74
2022/11/13 14:13:02;;;;;;;2.50;1.53;;;18.00;82.70;;;;;;5033601;28;20641;-76
2022/11/13 14:15:47;;;;;;;2.93;1.17;;;18.00;83.00;;;;;;5053671;28;20930;-74
2022/11/13 14:18:32;;;;;;;2.60;1.73;;;18.00;82.20;;;;;;5034521;28;21214;-73
2022/11/13 14:21:21;;;;;;;2.50;1.87;;;18.00;82.70;;;;;;5053453;28;20630;-74
2022/11/13 14:24:15;;;;;;;3.87;1.90;;;18.00;80.40;;;;;;5036465;28;20640;-74
2022/11/13 14:27:04;;;;;;;3.20;1.90;;;18.00;81.50;;;;;;5051935;28;20572;-74
2022/11/13 14:30:01;;;;;;;2.40;1.20;;;18.00;81.60;;;;;;5033790;28;21142;-74
2022/11/13 14:32:45;;;;;;;3.40;1.43;;;18.00;81.50;;;;;;5050405;28;20628;-74
2022/11/13 14:35:30;;;;;;;2.50;1.37;;;18.00;82.10;;;;;;5033430;28;20587;-74
2022/11/13 14:38:24;;;;;;;2.63;1.40;;;17.90;80.90;;;;;;5051899;28;20586;-74
2022/11/13 14:41:38;;;;;;;2.20;1.10;;;17.90;79.90;;;;;;5050433;28;20728;-74
2022/11/13 14:44:31;;;;;;;4.10;1.33;;;17.90;79.90;;;;;;5036677;28;20611;-74